Time;durP1;ratioP1;P1;durP2;ratioP2;P2;SDS_P1;SDS_P2;PMS_P1;PMS_P2;Temp;Humidity;BMP_temperature;BMP_pressure;BME280_temperature;BME280_humidity;BME280_pressure;Samples;Min_cycle;Max_cycle;Signal;HPM_P1;HPM_P2
2022/03/20 00:01:39;;;;;;;16.73;11.95;;;12.70;49.40;;;;;;5055043;28;20481;-72
2022/03/20 00:04:04;;;;;;;18.58;11.82;;;12.60;48.70;;;;;;5054957;28;20033;-72
2022/03/20 00:06:30;;;;;;;19.38;11.52;;;12.60;48.30;;;;;;5054846;28;20043;-74
2022/03/20 00:08:56;;;;;;;21.83;12.27;;;12.60;47.90;;;;;;5053836;28;20029;-72
2022/03/20 00:11:22;;;;;;;19.00;12.23;;;12.60;47.80;;;;;;5054820;28;20036;-74
2022/03/20 00:13:48;;;;;;;17.45;10.48;;;12.60;47.70;;;;;;5054757;28;20021;-73
2022/03/20 00:16:14;;;;;;;20.38;11.93;;;12.60;47.80;;;;;;5054815;28;20494;-73
2022/03/20 00:18:40;;;;;;;18.17;11.13;;;12.50;47.50;;;;;;5054490;28;20024;-72
2022/03/20 00:21:09;;;;;;;18.27;11.10;;;12.40;47.00;;;;;;5054339;28;20017;-70
2022/03/20 00:23:35;;;;;;;16.63;11.00;;;12.40;46.80;;;;;;5054571;28;20466;-71
2022/03/20 00:26:01;;;;;;;17.42;10.48;;;12.40;46.70;;;;;;5053275;28;20036;-72
2022/03/20 00:28:27;;;;;;;15.80;10.35;;;12.40;46.60;;;;;;5054667;28;20043;-70
2022/03/20 00:30:54;;;;;;;19.23;10.57;;;12.30;46.30;;;;;;5054461;28;20471;-72
2022/03/20 00:33:20;;;;;;;17.65;11.07;;;12.40;46.20;;;;;;5054681;28;20025;-72
2022/03/20 00:35:47;;;;;;;17.65;10.57;;;12.30;45.80;;;;;;5054453;28;20024;-70
2022/03/20 00:38:13;;;;;;;18.50;10.13;;;12.30;46.40;;;;;;5036236;28;20099;-70
2022/03/20 00:40:39;;;;;;;16.00;10.70;;;12.40;46.00;;;;;;5053815;28;20490;-71
2022/03/20 00:43:06;;;;;;;20.17;11.40;;;12.30;45.50;;;;;;5054253;28;20029;-72
2022/03/20 00:45:32;;;;;;;20.48;11.60;;;12.30;46.20;;;;;;5054095;28;20021;-71
2022/03/20 00:47:58;;;;;;;16.88;11.18;;;12.20;46.30;;;;;;5054140;28;20064;-70
2022/03/20 00:50:24;;;;;;;18.50;10.40;;;12.20;46.70;;;;;;5053716;28;20025;-71
2022/03/20 00:52:50;;;;;;;17.75;10.40;;;12.20;46.70;;;;;;5053684;28;20021;-71
2022/03/20 00:55:16;;;;;;;18.25;10.23;;;12.20;46.60;;;;;;5053539;28;20462;-71
2022/03/20 00:57:41;;;;;;;15.23;10.13;;;12.10;46.50;;;;;;5053641;28;20024;-71
2022/03/20 01:00:08;;;;;;;15.13;10.48;;;12.10;46.40;;;;;;5053440;28;20092;-71
2022/03/20 01:02:40;;;;;;;18.42;10.85;;;12.10;46.50;;;;;;5052360;28;20025;-70
2022/03/20 01:05:08;;;;;;;16.35;10.55;;;12.10;46.40;;;;;;5053618;28;20025;-69
2022/03/20 01:07:35;;;;;;;16.75;11.05;;;12.10;46.50;;;;;;5053555;28;20029;-73
2022/03/20 01:10:01;;;;;;;15.15;9.75;;;12.10;46.30;;;;;;5053530;28;20021;-73
2022/03/20 01:12:28;;;;;;;15.80;9.20;;;12.00;46.30;;;;;;5053460;28;20040;-70
2022/03/20 01:14:54;;;;;;;14.68;9.43;;;12.00;45.90;;;;;;5053564;28;20087;-72
2022/03/20 01:17:20;;;;;;;17.02;9.50;;;11.90;45.80;;;;;;5053484;28;20427;-71
2022/03/20 01:19:46;;;;;;;15.68;9.77;;;11.90;45.80;;;;;;5053171;28;20025;-70
2022/03/20 01:22:12;;;;;;;16.63;10.30;;;11.80;45.80;;;;;;5053474;28;20040;-73
2022/03/20 01:24:37;;;;;;;17.23;10.23;;;11.80;45.60;;;;;;5053531;28;20028;-71
2022/03/20 01:27:04;;;;;;;15.05;9.02;;;11.90;46.00;;;;;;5054236;28;20037;-73
2022/03/20 01:29:30;;;;;;;14.73;9.13;;;11.90;45.90;;;;;;5054169;28;20072;-72
2022/03/20 01:31:56;;;;;;;16.60;8.93;;;11.90;45.30;;;;;;5053355;28;20477;-71
2022/03/20 01:34:24;;;;;;;14.00;8.80;;;11.90;45.50;;;;;;5053104;28;20025;-71
2022/03/20 01:36:49;;;;;;;17.88;8.88;;;11.90;45.60;;;;;;5051878;28;20035;-71
2022/03/20 01:39:15;;;;;;;13.95;9.25;;;11.80;45.20;;;;;;5051753;28;20041;-69
2022/03/20 01:41:41;;;;;;;14.63;9.50;;;11.80;45.20;;;;;;5053078;28;20033;-71
2022/03/20 01:44:07;;;;;;;18.52;10.55;;;11.80;45.50;;;;;;5052939;28;20021;-72
2022/03/20 01:46:33;;;;;;;15.82;10.73;;;11.80;45.50;;;;;;5052800;28;20363;-74
2022/03/20 01:48:59;;;;;;;16.38;10.23;;;11.80;45.30;;;;;;5052746;28;20381;-71
2022/03/20 01:54:13;;;;;;;14.07;9.60;;;11.70;45.50;;;;;;5052691;28;20083;-69
2022/03/20 01:56:45;;;;;;;13.35;9.45;;;11.70;45.20;;;;;;5052968;28;20467;-71
2022/03/20 01:59:11;;;;;;;13.55;9.02;;;11.70;45.10;;;;;;5052789;28;20013;-71
2022/03/20 02:01:37;;;;;;;15.82;8.60;;;11.60;45.20;;;;;;5052856;28;20113;-70
2022/03/20 02:04:03;;;;;;;18.08;9.32;;;11.50;45.10;;;;;;5052890;28;20402;-72
2022/03/20 02:06:28;;;;;;;17.73;9.57;;;11.50;45.40;;;;;;5052790;28;20036;-69
2022/03/20 02:08:56;;;;;;;14.18;8.10;;;11.50;45.20;;;;;;5053068;28;20083;-70
2022/03/20 02:11:25;;;;;;;12.80;8.90;;;11.50;45.20;;;;;;5052823;28;20466;-73
2022/03/20 02:13:52;;;;;;;14.07;8.80;;;11.60;45.10;;;;;;5052647;28;20087;-73
2022/03/20 02:16:19;;;;;;;12.95;8.70;;;11.50;45.60;;;;;;5052673;28;20033;-73
2022/03/20 02:18:46;;;;;;;13.45;8.55;;;11.50;44.80;;;;;;5052867;28;20103;-73
2022/03/20 02:21:12;;;;;;;15.35;9.10;;;11.50;44.80;;;;;;5052725;28;20033;-73
2022/03/20 02:23:38;;;;;;;17.75;8.35;;;11.50;45.10;;;;;;5052702;28;20044;-71
2022/03/20 02:26:04;;;;;;;14.35;8.57;;;11.40;45.00;;;;;;5052750;28;20080;-73
2022/03/20 02:28:30;;;;;;;14.65;8.48;;;11.30;45.00;;;;;;5052537;28;20024;-73
2022/03/20 02:30:56;;;;;;;14.90;8.07;;;11.30;45.20;;;;;;5051614;28;20029;-71
2022/03/20 02:33:24;;;;;;;13.45;8.45;;;11.40;45.40;;;;;;5055199;28;20151;-73
2022/03/20 02:35:51;;;;;;;13.85;8.32;;;11.40;45.30;;;;;;5056402;28;20021;-72
2022/03/20 02:38:18;;;;;;;15.02;7.82;;;11.40;45.20;;;;;;5056629;28;20029;-72
2022/03/20 02:40:45;;;;;;;12.68;8.77;;;11.40;45.10;;;;;;5056627;28;20052;-70
2022/03/20 02:43:10;;;;;;;15.27;8.23;;;11.40;45.10;;;;;;5056746;28;20021;-73
2022/03/20 02:45:37;;;;;;;11.73;7.90;;;11.40;45.10;;;;;;5056333;28;20031;-71
2022/03/20 02:48:04;;;;;;;17.88;8.88;;;11.40;45.10;;;;;;5056323;28;20103;-70
2022/03/20 02:50:38;;;;;;;14.65;8.57;;;11.30;45.00;;;;;;5056112;28;20025;-71
2022/03/20 02:53:13;;;;;;;13.65;8.40;;;11.30;45.10;;;;;;5056181;28;20420;-71
2022/03/20 02:55:45;;;;;;;15.05;8.13;;;11.30;45.80;;;;;;5056398;28;20207;-69
2022/03/20 02:58:16;;;;;;;12.73;8.05;;;11.30;45.10;;;;;;5056323;28;20040;-71
2022/03/20 03:00:43;;;;;;;15.93;7.82;;;11.30;44.60;;;;;;5056300;28;20029;-71
2022/03/20 03:03:11;;;;;;;14.70;8.52;;;11.30;45.10;;;;;;5055999;28;20027;-72
2022/03/20 03:05:38;;;;;;;12.52;8.38;;;11.20;44.90;;;;;;5056054;28;20123;-72
2022/03/20 03:10:59;;;;;;;13.95;8.50;;;11.20;45.00;;;;;;5056242;28;20417;-71
2022/03/20 03:13:30;;;;;;;13.40;8.40;;;11.20;44.90;;;;;;5055873;28;20112;-72
2022/03/20 03:15:58;;;;;;;16.30;9.13;;;11.20;46.00;;;;;;5055799;28;20482;-71
2022/03/20 03:18:25;;;;;;;15.70;8.00;;;11.20;44.80;;;;;;5055848;28;20021;-72
2022/03/20 03:20:51;;;;;;;12.38;7.88;;;11.30;45.00;;;;;;5055776;28;20017;-71
2022/03/20 03:23:18;;;;;;;13.85;7.88;;;11.30;44.90;;;;;;5055584;28;20025;-70
2022/03/20 03:25:45;;;;;;;12.80;7.90;;;11.30;44.90;;;;;;5055819;28;20378;-72
2022/03/20 03:28:11;;;;;;;15.00;7.72;;;11.20;44.70;;;;;;5055477;28;20025;-71
2022/03/20 03:30:38;;;;;;;12.95;7.85;;;11.20;44.70;;;;;;5056153;28;20025;-70
2022/03/20 03:33:04;;;;;;;11.15;7.20;;;11.20;44.50;;;;;;5055458;28;20029;-70
2022/03/20 03:35:41;;;;;;;15.38;7.65;;;11.10;44.80;;;;;;5055568;28;20036;-70
2022/03/20 03:38:12;;;;;;;12.00;7.63;;;11.10;45.10;;;;;;5054332;28;20096;-70
2022/03/20 03:40:39;;;;;;;13.10;7.53;;;11.10;44.40;;;;;;5055136;28;20053;-71
2022/03/20 03:43:06;;;;;;;13.10;7.53;;;11.00;44.20;;;;;;5055228;28;20075;-70
2022/03/20 03:45:32;;;;;;;10.32;7.50;;;11.00;44.40;;;;;;5054067;28;20021;-70
2022/03/20 03:47:58;;;;;;;12.13;7.35;;;11.00;44.60;;;;;;5055282;28;20036;-70
2022/03/20 03:50:24;;;;;;;13.55;7.47;;;11.00;44.60;;;;;;5055238;28;20386;-70
2022/03/20 03:52:49;;;;;;;12.38;7.22;;;11.00;44.60;;;;;;5055272;28;20052;-70
2022/03/20 03:55:16;;;;;;;10.63;6.72;;;10.90;44.30;;;;;;5055141;28;20382;-70
2022/03/20 03:57:46;;;;;;;10.55;6.45;;;10.90;44.40;;;;;;5055417;28;20040;-69
2022/03/20 04:00:13;;;;;;;11.68;7.22;;;10.80;45.00;;;;;;5055074;28;20017;-71
2022/03/20 04:02:39;;;;;;;12.48;6.75;;;10.80;44.40;;;;;;5055032;28;20483;-71
2022/03/20 04:05:05;;;;;;;12.05;7.07;;;10.80;44.40;;;;;;5054947;28;20033;-70
2022/03/20 04:07:31;;;;;;;13.48;6.85;;;10.80;44.20;;;;;;5054658;28;20122;-70
2022/03/20 04:09:57;;;;;;;11.15;7.18;;;10.90;44.50;;;;;;5054696;28;20049;-69
2022/03/20 04:12:23;;;;;;;11.80;7.00;;;10.90;44.40;;;;;;5055188;28;20029;-69
2022/03/20 04:14:48;;;;;;;12.80;6.97;;;10.90;44.30;;;;;;5054673;28;20017;-68
2022/03/20 04:17:14;;;;;;;9.88;6.53;;;10.90;44.20;;;;;;5054597;28;20032;-69
2022/03/20 04:19:41;;;;;;;14.93;7.90;;;10.90;44.10;;;;;;5054543;28;20031;-70
2022/03/20 04:22:07;;;;;;;14.60;6.80;;;10.90;44.20;;;;;;5054368;28;20100;-72
2022/03/20 04:24:36;;;;;;;11.40;6.60;;;10.90;44.00;;;;;;5054860;28;20100;-70
2022/03/20 04:27:03;;;;;;;10.40;6.30;;;10.90;44.20;;;;;;5053226;28;20049;-69
2022/03/20 04:29:28;;;;;;;11.43;6.53;;;10.80;43.80;;;;;;5054602;28;20510;-70
2022/03/20 04:31:55;;;;;;;11.70;6.68;;;10.70;43.90;;;;;;5054432;28;20100;-73
2022/03/20 04:34:27;;;;;;;13.00;7.35;;;10.60;43.80;;;;;;5054724;28;20158;-72
2022/03/20 04:36:56;;;;;;;13.05;6.78;;;10.60;44.80;;;;;;5054491;28;20032;-72
2022/03/20 04:39:23;;;;;;;10.27;6.70;;;10.60;44.20;;;;;;5053955;28;20040;-71
2022/03/20 04:41:49;;;;;;;10.73;6.65;;;10.60;44.00;;;;;;5054431;28;20103;-72
2022/03/20 04:44:15;;;;;;;10.70;6.25;;;10.60;44.20;;;;;;5054539;28;20027;-73
2022/03/20 04:46:41;;;;;;;11.25;6.60;;;10.60;44.40;;;;;;5053976;28;20037;-71
2022/03/20 05:00:06;;;;;;;11.57;6.53;;;10.60;44.00;;;;;;5062238;28;19928;-72
2022/03/20 05:02:31;;;;;;;10.52;6.50;;;10.50;44.20;;;;;;5055470;28;20389;-71
2022/03/20 05:04:57;;;;;;;11.77;6.57;;;10.50;44.00;;;;;;5053777;28;20109;-70
2022/03/20 05:07:23;;;;;;;14.35;6.28;;;10.50;44.10;;;;;;5053880;28;20104;-74
2022/03/20 05:15:17;;;;;;;11.93;6.35;;;10.50;44.90;;;;;;5053897;28;20043;-70
2022/03/20 05:17:43;;;;;;;12.35;6.82;;;10.50;43.90;;;;;;5053844;28;20417;-72
2022/03/20 05:20:10;;;;;;;12.48;6.40;;;10.50;44.20;;;;;;5053733;28;20028;-71
2022/03/20 05:22:38;;;;;;;9.80;5.93;;;10.50;44.40;;;;;;5053485;28;20021;-70
2022/03/20 05:25:09;;;;;;;11.07;6.65;;;10.40;43.50;;;;;;5053462;28;20020;-70
2022/03/20 05:27:35;;;;;;;10.55;6.30;;;10.40;43.80;;;;;;5053550;28;20087;-71
2022/03/20 05:30:03;;;;;;;9.80;6.60;;;10.40;43.60;;;;;;5053443;28;20047;-72
2022/03/20 05:32:28;;;;;;;12.15;6.10;;;10.40;43.60;;;;;;5053494;28;20055;-72
2022/03/20 05:34:54;;;;;;;11.77;6.78;;;10.40;44.00;;;;;;5053267;28;20021;-70
2022/03/20 05:37:20;;;;;;;9.85;6.18;;;10.40;43.60;;;;;;5052133;28;20021;-69
2022/03/20 05:39:46;;;;;;;9.18;6.20;;;10.40;43.60;;;;;;5053259;28;20043;-69
2022/03/20 05:42:14;;;;;;;11.70;6.20;;;10.40;43.30;;;;;;5053451;28;20016;-71
2022/03/20 05:44:40;;;;;;;12.98;6.63;;;10.40;43.00;;;;;;5053356;28;20093;-70
2022/03/20 05:47:07;;;;;;;11.45;6.35;;;10.40;43.10;;;;;;5052908;28;20037;-71
2022/03/20 05:49:32;;;;;;;13.70;6.45;;;10.40;43.20;;;;;;5052944;28;20390;-69
2022/03/20 05:51:59;;;;;;;11.90;6.32;;;10.40;43.10;;;;;;5053153;28;20486;-69
2022/03/20 05:54:25;;;;;;;9.27;6.03;;;10.40;43.00;;;;;;5052846;28;20029;-70
2022/03/20 05:59:36;;;;;;;11.07;6.18;;;10.50;43.30;;;;;;5053140;28;20362;-70
2022/03/20 06:02:03;;;;;;;9.95;6.25;;;10.50;42.80;;;;;;5052987;28;20106;-71
2022/03/20 06:04:29;;;;;;;9.77;6.35;;;10.50;42.60;;;;;;5053101;28;20031;-70
2022/03/20 06:06:54;;;;;;;11.00;5.95;;;10.50;42.70;;;;;;5053167;28;20100;-71
2022/03/20 06:09:21;;;;;;;13.00;6.70;;;10.50;42.60;;;;;;5057050;28;20029;-70
2022/03/20 06:11:46;;;;;;;10.90;6.05;;;10.50;42.40;;;;;;5057088;28;20028;-70
2022/03/20 06:14:12;;;;;;;12.30;6.03;;;10.60;42.80;;;;;;5057105;28;20429;-70
2022/03/20 06:16:38;;;;;;;10.32;5.90;;;10.60;42.50;;;;;;5056972;28;20112;-69
2022/03/20 06:19:08;;;;;;;12.77;6.47;;;10.70;42.70;;;;;;5057156;28;20025;-70
2022/03/20 06:21:34;;;;;;;11.68;6.18;;;10.90;43.50;;;;;;5057108;28;20024;-70
2022/03/20 06:24:00;;;;;;;9.40;6.28;;;11.00;42.60;;;;;;5056992;28;20107;-72
2022/03/20 06:26:26;;;;;;;11.57;6.53;;;11.00;42.50;;;;;;5056730;28;20068;-70
2022/03/20 06:28:52;;;;;;;12.65;6.63;;;11.10;42.20;;;;;;5056641;28;20051;-71
2022/03/20 06:31:19;;;;;;;10.95;6.15;;;11.10;41.80;;;;;;5056746;28;20028;-71
2022/03/20 06:33:46;;;;;;;10.30;5.95;;;11.20;42.10;;;;;;5056887;28;20029;-70
2022/03/20 06:36:13;;;;;;;10.65;6.28;;;11.30;42.20;;;;;;5056415;28;20063;-70
2022/03/20 06:38:39;;;;;;;9.68;6.10;;;11.30;41.40;;;;;;5056311;28;20025;-69
2022/03/20 06:41:09;;;;;;;9.50;6.25;;;11.30;41.70;;;;;;5056212;28;20132;-70
2022/03/20 06:43:36;;;;;;;10.88;6.65;;;11.50;41.80;;;;;;5056274;28;20542;-70
2022/03/20 06:46:03;;;;;;;12.68;5.97;;;11.60;41.50;;;;;;5055865;28;20466;-69
2022/03/20 06:48:29;;;;;;;12.13;6.22;;;11.70;41.30;;;;;;5055997;28;20032;-70
2022/03/20 06:50:55;;;;;;;12.60;6.07;;;11.70;41.50;;;;;;5056199;28;20040;-71
2022/03/20 06:53:21;;;;;;;11.25;5.88;;;11.90;41.30;;;;;;5056196;28;20422;-70
2022/03/20 06:55:48;;;;;;;11.02;6.57;;;11.90;41.10;;;;;;5056077;28;20036;-70
2022/03/20 06:58:14;;;;;;;12.43;6.97;;;12.10;40.90;;;;;;5055777;28;20025;-70
2022/03/20 07:00:41;;;;;;;14.25;6.90;;;12.30;41.00;;;;;;5055878;28;20029;-70
2022/03/20 07:03:08;;;;;;;8.60;6.07;;;12.40;40.10;;;;;;5055893;28;20017;-70
2022/03/20 07:05:35;;;;;;;11.15;6.30;;;12.50;40.40;;;;;;5055729;28;20021;-70
2022/03/20 07:08:01;;;;;;;12.70;6.68;;;12.60;39.90;;;;;;5054349;28;20032;-71
2022/03/20 07:10:27;;;;;;;12.35;6.63;;;12.70;39.90;;;;;;5054528;28;20071;-70
2022/03/20 07:13:48;;;;;;;14.27;6.10;;;12.90;40.20;;;;;;5055727;28;20359;-69
2022/03/20 07:15:44;;;;;;;10.48;5.80;;;12.90;39.70;;;;;;5055568;28;20056;-74
2022/03/20 07:18:11;;;;;;;12.68;5.80;;;12.90;40.20;;;;;;5055185;28;20462;-69
2022/03/20 07:20:43;;;;;;;11.73;6.75;;;13.00;39.60;;;;;;5055331;28;20504;-70
2022/03/20 07:23:11;;;;;;;9.60;5.65;;;13.00;39.70;;;;;;5055060;28;20025;-70
2022/03/20 07:31:06;;;;;;;;;;;13.00;38.10;;;;;;5055770;28;20551;-72
2022/03/20 07:33:33;;;;;;;10.43;5.75;;;13.20;37.60;;;;;;5055494;28;19909;-72
2022/03/20 07:35:59;;;;;;;9.05;5.28;;;13.20;38.60;;;;;;5055279;28;20051;-72
2022/03/20 07:38:26;;;;;;;13.07;5.95;;;13.30;39.00;;;;;;5054940;28;20025;-73
2022/03/20 07:40:52;;;;;;;10.52;6.25;;;13.30;38.70;;;;;;5055004;28;20466;-73
2022/03/20 07:43:18;;;;;;;12.25;6.13;;;13.40;38.50;;;;;;5053519;28;20033;-72
2022/03/20 07:45:44;;;;;;;9.70;5.57;;;13.50;38.90;;;;;;5055245;28;20029;-73
2022/03/20 07:48:10;;;;;;;10.00;5.28;;;13.50;37.90;;;;;;5054969;28;20108;-68
2022/03/20 07:50:36;;;;;;;9.80;5.00;;;13.60;37.80;;;;;;5054924;28;20588;-69
2022/03/20 07:53:02;;;;;;;9.55;5.20;;;13.60;38.10;;;;;;5054849;28;20099;-70
2022/03/20 07:55:28;;;;;;;11.27;5.05;;;13.70;38.00;;;;;;5054659;28;20025;-69
2022/03/20 07:57:55;;;;;;;11.05;5.28;;;13.80;37.30;;;;;;5054889;28;20028;-71
2022/03/20 08:00:22;;;;;;;11.70;5.53;;;13.90;37.70;;;;;;5054551;28;20442;-71
2022/03/20 08:02:48;;;;;;;7.88;5.07;;;13.80;37.40;;;;;;5054599;28;20405;-71
2022/03/20 08:05:15;;;;;;;8.23;4.95;;;13.80;36.90;;;;;;5054867;28;20466;-70
2022/03/20 08:07:40;;;;;;;11.10;4.80;;;13.90;37.40;;;;;;5055093;28;20386;-71
2022/03/20 08:10:08;;;;;;;8.90;4.50;;;13.90;36.90;;;;;;5054646;28;20025;-70
2022/03/20 08:12:34;;;;;;;8.48;5.82;;;13.80;36.20;;;;;;5054629;28;20029;-70
2022/03/20 08:15:00;;;;;;;10.85;6.72;;;13.90;36.90;;;;;;5054664;28;20021;-69
2022/03/20 08:17:28;;;;;;;8.65;5.00;;;14.00;37.20;;;;;;5054518;28;20370;-71
2022/03/20 08:19:54;;;;;;;11.60;5.50;;;14.10;36.40;;;;;;5054489;28;20052;-69
2022/03/20 08:22:20;;;;;;;8.93;5.15;;;14.10;36.80;;;;;;5054720;28;20060;-70
2022/03/20 08:24:47;;;;;;;10.65;5.03;;;14.20;36.30;;;;;;5054502;28;20024;-70
2022/03/20 08:27:13;;;;;;;8.32;5.05;;;14.30;35.80;;;;;;5054721;28;20044;-72
2022/03/20 08:29:38;;;;;;;10.55;4.63;;;14.30;35.90;;;;;;5053881;28;20086;-71
2022/03/20 08:32:05;;;;;;;8.45;5.00;;;14.30;35.90;;;;;;5054214;28;20033;-70
2022/03/20 08:34:31;;;;;;;8.35;4.28;;;14.40;35.90;;;;;;5053573;28;20428;-71
2022/03/20 08:36:57;;;;;;;15.60;5.25;;;14.40;35.60;;;;;;5054045;28;20112;-70
2022/03/20 08:39:22;;;;;;;9.85;5.53;;;14.40;35.70;;;;;;5053876;28;20508;-72
2022/03/20 08:41:48;;;;;;;10.40;4.88;;;14.50;35.60;;;;;;5053848;28;20040;-74
2022/03/20 08:44:14;;;;;;;11.45;4.38;;;14.60;35.20;;;;;;5053913;28;20476;-72
2022/03/20 08:46:40;;;;;;;6.93;4.45;;;14.60;34.80;;;;;;5053779;28;20090;-71
2022/03/20 08:49:07;;;;;;;10.40;4.43;;;14.60;34.90;;;;;;5053574;28;20029;-73
2022/03/20 08:51:34;;;;;;;8.60;4.50;;;14.60;34.80;;;;;;5054096;28;20060;-73
2022/03/20 08:54:01;;;;;;;7.05;4.63;;;14.50;34.60;;;;;;5053944;28;20119;-72
2022/03/20 08:56:27;;;;;;;8.10;4.63;;;14.40;34.80;;;;;;5053506;28;20040;-72
2022/03/20 08:58:54;;;;;;;7.78;4.50;;;14.40;34.50;;;;;;5053664;28;20032;-74
2022/03/20 09:01:20;;;;;;;6.93;4.20;;;14.40;34.70;;;;;;5053584;28;20102;-72
2022/03/20 09:03:49;;;;;;;8.38;4.80;;;14.40;34.40;;;;;;5052425;28;20024;-72
2022/03/20 09:06:19;;;;;;;8.48;4.05;;;14.40;34.20;;;;;;5053209;28;20526;-74
2022/03/20 09:08:45;;;;;;;11.63;4.85;;;14.40;34.40;;;;;;5053551;28;20037;-71
2022/03/20 09:11:11;;;;;;;12.77;4.70;;;14.40;34.30;;;;;;5053454;28;20028;-72
2022/03/20 09:13:37;;;;;;;8.52;4.60;;;14.40;34.40;;;;;;5053505;28;20025;-69
2022/03/20 09:18:59;;;;;;;11.02;5.30;;;14.50;34.40;;;;;;5053737;28;20031;-70
2022/03/20 09:21:26;;;;;;;7.50;4.45;;;14.60;33.60;;;;;;5053554;28;20028;-72
2022/03/20 09:23:51;;;;;;;12.05;4.78;;;14.70;34.60;;;;;;5053385;28;20048;-72
2022/03/20 09:26:17;;;;;;;11.63;5.75;;;14.80;34.30;;;;;;5053415;28;20079;-71
2022/03/20 09:28:47;;;;;;;12.25;5.20;;;14.90;34.60;;;;;;5053105;28;20075;-72
2022/03/20 09:31:13;;;;;;;12.30;4.78;;;15.00;34.60;;;;;;5053101;28;20052;-72
2022/03/20 09:33:40;;;;;;;9.43;4.82;;;15.10;34.80;;;;;;5053054;28;20027;-71
2022/03/20 09:36:06;;;;;;;8.02;4.88;;;15.10;34.00;;;;;;5052947;28;20029;-70
2022/03/20 09:38:33;;;;;;;8.27;5.05;;;15.20;33.90;;;;;;5052049;28;20029;-70
2022/03/20 09:41:03;;;;;;;9.25;4.38;;;15.30;34.00;;;;;;5052472;28;20103;-71
2022/03/20 09:43:31;;;;;;;8.00;4.97;;;15.20;32.90;;;;;;5052739;28;20025;-70
2022/03/20 09:45:58;;;;;;;7.97;4.47;;;15.10;33.60;;;;;;5052416;28;20404;-71
2022/03/20 09:48:27;;;;;;;7.82;4.13;;;15.10;32.30;;;;;;5052591;28;20035;-72
2022/03/20 09:50:53;;;;;;;9.65;4.28;;;15.10;32.60;;;;;;5052831;28;20029;-70
2022/03/20 09:53:21;;;;;;;7.68;4.60;;;15.20;32.50;;;;;;5053244;28;20416;-69
2022/03/20 09:55:46;;;;;;;8.07;3.88;;;15.30;32.80;;;;;;5053195;28;20078;-71
2022/03/20 09:58:13;;;;;;;8.85;4.93;;;15.30;31.80;;;;;;5052670;28;20108;-71
2022/03/20 10:00:39;;;;;;;7.70;4.35;;;15.30;31.40;;;;;;5052681;28;20021;-70
2022/03/20 10:03:19;;;;;;;9.02;4.28;;;15.30;30.80;;;;;;5052859;28;20028;-70
2022/03/20 10:06:17;;;;;;;7.50;4.35;;;15.40;31.90;;;;;;5052497;28;20056;-71
2022/03/20 10:09:00;;;;;;;7.03;3.97;;;15.30;30.90;;;;;;5052496;28;20029;-70
2022/03/20 10:11:26;;;;;;;7.32;4.43;;;15.40;29.90;;;;;;5052692;28;20025;-72
2022/03/20 10:14:23;;;;;;;7.13;4.57;;;15.30;31.40;;;;;;5052789;28;20035;-69
2022/03/20 10:16:53;;;;;;;7.53;4.13;;;15.40;31.80;;;;;;5052509;28;20442;-73
2022/03/20 10:19:26;;;;;;;8.20;4.10;;;15.50;31.70;;;;;;5052465;28;20048;-72
2022/03/20 10:22:00;;;;;;;10.23;4.65;;;15.60;31.50;;;;;;5052964;28;20033;-69
2022/03/20 10:24:29;;;;;;;10.30;4.80;;;15.60;29.40;;;;;;5052692;28;20470;-71
2022/03/20 10:27:01;;;;;;;8.20;4.70;;;15.70;30.00;;;;;;5052373;28;20040;-70
2022/03/20 10:29:32;;;;;;;7.82;4.60;;;15.70;31.40;;;;;;5050924;28;20039;-70
2022/03/20 10:32:11;;;;;;;8.85;4.47;;;15.80;30.50;;;;;;5052583;28;20114;-69
2022/03/20 10:34:52;;;;;;;7.60;4.68;;;15.70;30.70;;;;;;5052435;28;20028;-71
2022/03/20 10:37:19;;;;;;;8.07;4.43;;;15.60;29.90;;;;;;5052489;28;20386;-71
2022/03/20 10:39:45;;;;;;;8.10;4.18;;;15.70;30.50;;;;;;5052110;28;20061;-71
2022/03/20 10:42:15;;;;;;;7.72;4.50;;;15.80;30.20;;;;;;5052068;28;20021;-70
2022/03/20 10:44:41;;;;;;;7.78;4.28;;;15.80;30.20;;;;;;5052342;28;20025;-69
2022/03/20 10:47:16;;;;;;;7.85;4.22;;;15.90;30.00;;;;;;5052314;28;20040;-70
2022/03/20 10:49:48;;;;;;;9.00;4.53;;;15.90;30.70;;;;;;5051984;28;20021;-70
2022/03/20 10:52:22;;;;;;;9.05;4.55;;;16.00;30.00;;;;;;5052455;28;20025;-71
2022/03/20 10:54:53;;;;;;;7.78;4.57;;;16.00;30.00;;;;;;5055155;28;20378;-72
2022/03/20 10:57:20;;;;;;;9.10;4.68;;;16.00;30.10;;;;;;5055994;28;20063;-71
2022/03/20 11:00:05;;;;;;;7.45;4.45;;;16.00;30.10;;;;;;5055720;28;20387;-70
2022/03/20 11:02:34;;;;;;;9.07;4.38;;;16.10;30.40;;;;;;5055960;28;20025;-70
2022/03/20 11:05:00;;;;;;;7.80;4.93;;;16.20;30.80;;;;;;5055751;28;20024;-70
2022/03/20 11:07:26;;;;;;;10.82;4.50;;;16.30;30.00;;;;;;5055625;28;20041;-70
2022/03/20 11:09:54;;;;;;;8.50;4.50;;;16.30;30.00;;;;;;5055724;28;20040;-70
2022/03/20 11:12:28;;;;;;;6.93;4.68;;;16.40;30.00;;;;;;5055837;28;20394;-70
2022/03/20 11:14:58;;;;;;;9.30;4.82;;;16.50;30.00;;;;;;5055532;28;20053;-72
2022/03/20 11:17:27;;;;;;;8.73;4.80;;;16.50;30.70;;;;;;5055497;28;20045;-70
2022/03/20 11:19:54;;;;;;;10.48;5.53;;;16.70;30.00;;;;;;5055198;28;20134;-71
2022/03/20 11:22:21;;;;;;;8.40;4.65;;;16.70;30.40;;;;;;5054501;28;20029;-70
2022/03/20 11:24:50;;;;;;;13.38;6.00;;;16.80;30.30;;;;;;5055429;28;20017;-70
2022/03/20 11:27:24;;;;;;;10.38;5.35;;;16.80;29.80;;;;;;5055132;28;20081;-71
2022/03/20 11:29:53;;;;;;;12.90;6.03;;;16.80;29.70;;;;;;5054890;28;20025;-70
2022/03/20 11:32:20;;;;;;;9.02;5.18;;;16.90;30.00;;;;;;5053900;28;20052;-71
2022/03/20 11:34:47;;;;;;;7.95;4.78;;;17.10;30.10;;;;;;5055247;28;20025;-70
2022/03/20 11:37:17;;;;;;;8.68;5.00;;;17.10;29.60;;;;;;5055078;28;20098;-71
2022/03/20 11:40:12;;;;;;;7.32;4.88;;;17.20;29.20;;;;;;5054764;28;20052;-70
2022/03/20 11:42:39;;;;;;;8.00;4.80;;;17.10;28.80;;;;;;5055424;28;20028;-70
2022/03/20 11:45:05;;;;;;;8.02;4.65;;;17.00;28.60;;;;;;5055096;28;20021;-70
2022/03/20 11:47:32;;;;;;;8.75;5.10;;;17.00;28.70;;;;;;5054935;28;20086;-71
2022/03/20 11:50:20;;;;;;;9.88;4.53;;;17.00;29.00;;;;;;5054516;28;20025;-70
2022/03/20 11:53:00;;;;;;;8.23;5.03;;;17.10;29.90;;;;;;5055095;28;20048;-71
2022/03/20 11:55:32;;;;;;;8.52;4.47;;;17.20;29.00;;;;;;5053643;28;20021;-70
2022/03/20 11:58:05;;;;;;;8.32;4.57;;;17.40;28.80;;;;;;5054671;28;20530;-72
2022/03/20 12:00:33;;;;;;;9.30;4.82;;;17.50;29.20;;;;;;5054834;28;20499;-72
2022/03/20 12:03:13;;;;;;;7.80;4.90;;;17.50;28.20;;;;;;5054880;28;20382;-72
2022/03/20 12:05:42;;;;;;;8.45;4.90;;;17.60;29.10;;;;;;5053837;28;20075;-72
2022/03/20 12:08:44;;;;;;;8.52;4.53;;;17.60;27.90;;;;;;5054671;28;20056;-74
2022/03/20 12:11:16;;;;;;;7.30;4.22;;;17.60;27.70;;;;;;5055001;28;20053;-72
2022/03/20 12:13:54;;;;;;;8.50;5.05;;;17.50;27.40;;;;;;5054490;28;20079;-72
2022/03/20 12:16:44;;;;;;;6.90;4.43;;;17.40;27.00;;;;;;5054526;28;20059;-73
2022/03/20 12:19:18;;;;;;;9.23;4.30;;;17.40;27.60;;;;;;5054581;28;20116;-72
2022/03/20 12:22:14;;;;;;;10.73;4.57;;;17.40;26.60;;;;;;5054800;28;20037;-70
2022/03/20 12:24:57;;;;;;;9.25;4.45;;;17.50;28.10;;;;;;5054378;28;20021;-73
2022/03/20 12:27:23;;;;;;;9.03;5.07;;;17.50;27.70;;;;;;5054373;28;20048;-71
2022/03/20 12:29:50;;;;;;;13.48;5.20;;;17.60;27.70;;;;;;5052992;28;20053;-72
2022/03/20 12:32:17;;;;;;;8.18;5.07;;;17.60;27.50;;;;;;5054233;28;20021;-73
2022/03/20 12:35:04;;;;;;;7.90;4.93;;;17.60;26.90;;;;;;5053152;28;20059;-73
2022/03/20 12:40:18;;;;;;;11.18;5.68;;;17.90;26.60;;;;;;5054128;28;20110;-73
2022/03/20 12:42:55;;;;;;;8.20;5.05;;;18.00;27.00;;;;;;5054513;28;20028;-72
2022/03/20 12:45:21;;;;;;;11.65;4.70;;;18.10;26.80;;;;;;5054484;28;20036;-71
2022/03/20 12:47:57;;;;;;;8.38;5.10;;;18.20;26.80;;;;;;5054259;28;20479;-71
2022/03/20 12:50:26;;;;;;;9.60;5.30;;;18.30;26.90;;;;;;5052734;28;20087;-71
2022/03/20 12:53:04;;;;;;;10.50;4.85;;;18.30;26.40;;;;;;5054295;28;20027;-71
2022/03/20 12:55:30;;;;;;;8.75;4.82;;;18.30;26.40;;;;;;5053906;28;20020;-72
2022/03/20 12:57:56;;;;;;;7.63;5.30;;;18.30;26.70;;;;;;5053689;28;20497;-71
2022/03/20 13:00:27;;;;;;;9.52;5.20;;;18.30;26.80;;;;;;5053972;28;20405;-71
2022/03/20 13:03:12;;;;;;;10.70;6.93;;;18.20;26.70;;;;;;5053987;28;20116;-72
2022/03/20 13:05:58;;;;;;;10.90;6.63;;;18.20;27.70;;;;;;5053844;28;20113;-71
2022/03/20 13:08:39;;;;;;;8.20;5.05;;;18.30;26.70;;;;;;5053011;28;20075;-71
2022/03/20 13:11:56;;;;;;;10.13;5.22;;;18.50;28.60;;;;;;5053697;28;20405;-74
2022/03/20 13:14:12;;;;;;;9.80;5.57;;;18.50;28.70;;;;;;5049575;28;20486;-70
2022/03/20 13:16:58;;;;;;;11.35;5.15;;;18.40;30.50;;;;;;5053090;28;20024;-71
2022/03/20 13:19:29;;;;;;;11.25;5.55;;;18.30;30.60;;;;;;5053572;28;20044;-72
2022/03/20 13:21:56;;;;;;;12.57;5.88;;;18.20;30.10;;;;;;5053897;28;20017;-70
2022/03/20 13:24:49;;;;;;;9.05;5.13;;;18.10;30.50;;;;;;5052226;28;20083;-70